createdAt,value
2023-01-19T14:20:39.127Z,100015.33
2023-01-19T14:23:42.723Z,100025.98
2023-01-19T14:26:41.206Z,100026.85
2023-01-19T14:29:12.748Z,100025.90
2023-01-19T14:31:49.498Z,100024.67
2023-01-19T15:39:16.928Z,100066.89
2023-01-19T15:41:46.660Z,100070.05
2023-01-19T15:44:16.775Z,100067.31
2023-01-19T15:46:46.701Z,100065.77
2023-01-19T15:49:19.789Z,100062.16
2023-01-19T15:51:49.577Z,100062.34
2023-01-19T15:54:19.180Z,100063.77
2023-01-19T15:56:53.024Z,100065.07
2023-01-19T15:59:24.318Z,100059.77
2023-01-19T16:01:54.022Z,100064.75
2023-01-19T16:04:23.484Z,100062.44
2023-01-19T16:06:52.752Z,100062.56
2023-01-19T16:09:23.270Z,100066.56
2023-01-19T16:11:57.495Z,100072.15
2023-01-19T16:14:26.290Z,100066.83
2023-01-19T16:16:55.215Z,100067.73
2023-01-19T16:19:27.100Z,100071.02
2023-01-19T16:21:56.765Z,100071.89
2023-01-19T16:24:27.301Z,100069.78
2023-01-19T16:26:56.777Z,100066.60
2023-01-19T16:29:25.612Z,100074.40
2023-01-19T16:31:56.997Z,100078.92
2023-01-19T16:34:27.963Z,100082.20
2023-01-19T16:37:03.775Z,100075.98
2023-01-19T16:39:33.412Z,100075.05
2023-01-19T16:42:02.502Z,100079.35
2023-01-19T16:44:35.441Z,100085.48
2023-01-19T16:47:07.458Z,100086.67
2023-01-19T16:49:39.105Z,100085.05
2023-01-19T16:52:08.122Z,100092.94
2023-01-19T16:54:40.984Z,100095.20
2023-01-19T16:57:18.586Z,100094.69
2023-01-19T16:59:51.754Z,100098.23
2023-01-19T17:02:20.867Z,100096.88
2023-01-19T17:04:49.757Z,100094.48
2023-01-19T17:07:25.113Z,100095.42
2023-01-19T17:09:55.418Z,100099.92
2023-01-19T17:12:32.238Z,100099.17
2023-01-19T17:15:01.908Z,100099.52
2023-01-19T17:17:32.594Z,100100.70
2023-01-19T17:20:13.271Z,100103.34
2023-01-19T17:22:45.807Z,100098.83
2023-01-19T17:25:14.813Z,100099.73
2023-01-19T17:27:45.274Z,100102.06
2023-01-19T17:30:20.911Z,100108.92
2023-01-19T17:32:51.946Z,100113.27
2023-01-19T17:35:21.471Z,100115.92
2023-01-19T17:37:54.775Z,100122.81
2023-01-19T17:40:27.088Z,100119.20
2023-01-19T17:42:55.550Z,100122.19
2023-01-19T17:45:26.791Z,100117.89
2023-01-19T17:47:55.994Z,100117.42
2023-01-19T17:50:24.582Z,100116.79
2023-01-19T17:52:58.826Z,100121.23
2023-01-19T17:55:35.926Z,100124.95
2023-01-19T17:58:07.621Z,100122.88
2023-01-19T18:00:36.741Z,100120.31
2023-01-19T18:03:11.447Z,100123.26
2023-01-19T18:05:56.932Z,100121.84
2023-01-19T18:08:30.102Z,100120.92
2023-01-19T18:11:03.050Z,100123.15
2023-01-19T18:13:36.960Z,100124.19
2023-01-19T18:16:08.832Z,100121.77
2023-01-19T18:18:40.021Z,100122.28
2023-01-19T18:21:11.761Z,100128.01
2023-01-19T18:23:43.614Z,100132.35
2023-01-19T18:26:19.638Z,100135.84
2023-01-19T18:28:55.169Z,100135.19
2023-01-19T18:31:25.703Z,100130.48
2023-01-19T18:33:55.173Z,100132.92
2023-01-19T18:36:24.970Z,100131.30
2023-01-19T18:38:53.975Z,100130.09
2023-01-19T18:41:22.578Z,100136.13
2023-01-19T18:44:01.147Z,100140.77
2023-01-19T18:46:31.574Z,100135.28
2023-01-19T18:49:05.123Z,100138.44
2023-01-19T18:51:34.189Z,100139.02
2023-01-19T18:54:03.254Z,100144.88
2023-01-19T18:56:33.640Z,100149.11
2023-01-19T18:59:05.508Z,100151.64
2023-01-19T19:01:37.527Z,100166.63
2023-01-19T19:04:14.462Z,100172.12
2023-01-19T19:06:49.896Z,100174.17
2023-01-19T19:09:21.112Z,100167.26
2023-01-19T19:11:49.914Z,100162.11
2023-01-19T19:14:22.908Z,100161.32
2023-01-19T19:16:54.460Z,100167.61
2023-01-19T19:19:28.919Z,100177.70
2023-01-19T19:22:00.898Z,100183.92
2023-01-19T19:24:31.549Z,100191.48
2023-01-19T19:27:00.135Z,100197.02
2023-01-19T19:29:29.489Z,100205.90
2023-01-19T19:31:58.343Z,100211.11
2023-01-19T19:34:32.672Z,100207.62
2023-01-19T19:37:02.263Z,100207.48
2023-01-19T19:39:31.764Z,100211.80
2023-01-19T19:42:02.824Z,100215.21
2023-01-19T19:44:32.034Z,100228.55
2023-01-19T19:47:01.812Z,100227.14
2023-01-19T19:49:32.330Z,100221.25
2023-01-19T19:52:02.056Z,100227.39
2023-01-19T19:54:32.080Z,100234.98
2023-01-19T19:57:03.083Z,100237.17
2023-01-19T19:59:33.783Z,100235.83
2023-01-19T20:02:06.458Z,100236.55
2023-01-19T20:04:38.609Z,100235.56
2023-01-19T20:07:11.001Z,100232.72
2023-01-19T20:09:40.568Z,100237.42
2023-01-19T20:12:12.289Z,100247.13
2023-01-19T20:14:43.719Z,100254.95
2023-01-19T20:17:14.429Z,100259.02
2023-01-19T20:19:49.605Z,100274.27
2023-01-19T20:22:20.767Z,100290.33
2023-01-19T20:24:52.443Z,100294.02
2023-01-19T20:27:22.770Z,100319.41
2023-01-19T20:29:59.663Z,100329.29
2023-01-19T20:32:30.404Z,100325.77
2023-01-19T20:34:59.495Z,100327.75
2023-01-19T20:37:29.476Z,100333.89
2023-01-19T20:39:59.097Z,100345.13
2023-01-19T20:42:29.508Z,100353.09
2023-01-19T20:45:04.437Z,100356.03
2023-01-19T20:47:40.001Z,100357.45
2023-01-19T20:50:10.951Z,100362.18
2023-01-19T20:52:40.273Z,100369.98
2023-01-19T20:55:13.970Z,100364.64
2023-01-19T20:57:43.539Z,100368.45
2023-01-19T21:00:17.731Z,100369.15
2023-01-19T21:02:49.104Z,100369.27
2023-01-19T21:08:58.338Z,100376.05
2023-01-19T21:11:28.568Z,100375.48
2023-01-19T21:13:57.158Z,100377.56
2023-01-19T21:16:29.302Z,100382.52
2023-01-19T21:18:59.893Z,100393.45
2023-01-19T21:21:31.976Z,100391.59
2023-01-19T21:24:04.845Z,100396.02
2023-01-19T21:26:37.011Z,100394.17
2023-01-19T21:29:12.127Z,100391.67
2023-01-19T21:31:41.599Z,100391.46
2023-01-19T21:34:12.037Z,100389.68
2023-01-19T21:36:40.830Z,100392.23
2023-01-19T21:39:10.251Z,100392.84
2023-01-19T21:41:40.563Z,100396.13
2023-01-19T21:44:13.641Z,100395.36
2023-01-19T21:46:43.776Z,100393.40
2023-01-19T21:49:19.183Z,100392.98
2023-01-19T21:51:52.921Z,100395.29
2023-01-19T21:54:21.699Z,100398.23
2023-01-19T21:56:50.629Z,100397.56
2023-01-19T21:59:20.521Z,100389.84
2023-01-19T22:01:54.602Z,100388.56
2023-01-19T22:07:53.655Z,100386.31
2023-01-19T22:10:22.221Z,100389.50
2023-01-19T22:12:50.923Z,100395.88
2023-01-19T22:15:20.294Z,100396.71
2023-01-19T22:17:48.995Z,100395.31
2023-01-19T22:20:17.684Z,100400.67
2023-01-19T22:22:46.196Z,100393.94
2023-01-19T22:25:15.305Z,100391.73
2023-01-19T22:27:44.195Z,100397.42
2023-01-19T22:30:13.029Z,100402.42
2023-01-19T22:32:41.511Z,100406.17
2023-01-19T22:35:10.300Z,100412.38
2023-01-19T22:37:38.808Z,100419.80
2023-01-19T22:40:12.349Z,100422.48
2023-01-19T22:42:45.778Z,100424.45
2023-01-19T22:45:15.612Z,100425.52
2023-01-19T22:47:46.451Z,100422.61
2023-01-19T22:50:15.635Z,100416.26
2023-01-19T22:52:44.213Z,100412.96
2023-01-19T22:55:13.054Z,100409.64
2023-01-19T22:57:41.787Z,100407.19
2023-01-19T23:00:11.397Z,100410.65
2023-01-19T23:02:39.706Z,100411.73
2023-01-19T23:05:08.041Z,100407.48
2023-01-19T23:07:36.626Z,100406.21
2023-01-19T23:10:05.738Z,100406.31
2023-01-19T23:12:33.995Z,100413.16
2023-01-19T23:15:02.398Z,100411.98
2023-01-19T23:17:30.976Z,100407.83
2023-01-19T23:19:59.644Z,100406.30
2023-01-19T23:22:28.433Z,100401.98
2023-01-19T23:24:56.725Z,100392.42
2023-01-19T23:27:25.193Z,100390.21
2023-01-19T23:29:53.685Z,100395.98
2023-01-19T23:32:23.591Z,100397.70
2023-01-19T23:34:51.860Z,100395.46
2023-01-19T23:37:20.855Z,100392.02
2023-01-19T23:39:49.296Z,100389.27
2023-01-19T23:42:18.231Z,100389.48
2023-01-19T23:44:47.647Z,100388.98
2023-01-19T23:47:16.122Z,100397.68
2023-01-19T23:49:46.127Z,100401.52
2023-01-19T23:52:15.171Z,100406.73
2023-01-19T23:54:44.949Z,100407.47
2023-01-19T23:57:14.026Z,100404.90
2023-01-19T23:59:42.610Z,100397.83
